createdAt,value
2022-10-17T00:03:49.449Z,101164.91
2022-10-17T00:08:52.566Z,101159.30
2022-10-17T00:13:56.989Z,101163.59
2022-10-17T00:19:00.813Z,101170.81
2022-10-17T00:24:05.148Z,101170.79
2022-10-17T00:29:08.289Z,101168.16
2022-10-17T00:34:11.357Z,101167.95
2022-10-17T00:39:14.468Z,101169.61
2022-10-17T00:44:29.858Z,101172.41
2022-10-17T00:49:36.240Z,101173.11
2022-10-17T00:54:46.208Z,101177.80
2022-10-17T00:59:53.714Z,101185.34
2022-10-17T01:04:59.691Z,101173.20
2022-10-17T01:10:03.919Z,101172.36
2022-10-17T01:15:44.197Z,101174.83
2022-10-17T01:21:28.572Z,101173.02
2022-10-17T01:26:57.276Z,101168.77
2022-10-17T01:32:05.707Z,101184.63
2022-10-17T01:37:21.930Z,101191.99
2022-10-17T01:42:38.643Z,101194.64
2022-10-17T01:47:42.989Z,101199.39
2022-10-17T01:52:51.408Z,101208.77
2022-10-17T01:58:00.761Z,101213.45
2022-10-17T02:03:10.292Z,101231.17
2022-10-17T02:08:13.862Z,101243.39
2022-10-17T02:13:35.394Z,101245.52
2022-10-17T02:18:51.794Z,101252.77
2022-10-17T02:24:13.019Z,101248.65
2022-10-17T02:29:21.141Z,101253.89
2022-10-17T02:34:35.105Z,101264.37
2022-10-17T02:39:39.874Z,101262.13
2022-10-17T02:44:45.842Z,101260.39
2022-10-17T02:49:55.090Z,101269.70
2022-10-17T02:55:00.733Z,101274.27
2022-10-17T03:00:07.936Z,101274.55
2022-10-17T03:05:13.513Z,101285.61
2022-10-17T03:10:16.911Z,101286.44
2022-10-17T03:15:20.535Z,101292.68
2022-10-17T03:20:23.636Z,101301.05
2022-10-17T03:25:27.355Z,101302.26
2022-10-17T03:30:30.561Z,101301.40
2022-10-17T03:35:33.669Z,101304.71
2022-10-17T03:40:36.778Z,101299.38
2022-10-17T03:45:39.884Z,101308.88
2022-10-17T03:50:42.987Z,101317.14
2022-10-17T03:55:46.100Z,101323.02
2022-10-17T04:00:49.404Z,101323.44
2022-10-17T04:05:53.019Z,101325.19
2022-10-17T04:11:00.435Z,101326.61
2022-10-17T04:16:11.054Z,101329.21
2022-10-17T04:21:14.213Z,101334.86
2022-10-17T04:26:17.421Z,101343.43
2022-10-17T04:31:21.785Z,101344.39
2022-10-17T04:36:24.964Z,101350.63
2022-10-17T04:41:28.275Z,101344.65
2022-10-17T04:46:31.277Z,101349.20
2022-10-17T04:51:34.395Z,101356.32
2022-10-17T04:56:37.490Z,101368.82
2022-10-17T05:01:40.603Z,101368.32
2022-10-17T05:06:43.905Z,101370.25
2022-10-17T05:11:46.908Z,101366.68
2022-10-17T05:16:50.116Z,101362.86
2022-10-17T05:21:53.230Z,101370.84
2022-10-17T05:26:57.043Z,101369.63
2022-10-17T05:37:08.376Z,101381.15
2022-10-17T05:42:11.585Z,101387.30
2022-10-17T05:47:14.690Z,101382.04
2022-10-17T05:52:17.805Z,101389.09
2022-10-17T05:57:21.411Z,101391.95
2022-10-17T06:02:24.579Z,101394.92
2022-10-17T06:07:27.827Z,101407.34
2022-10-17T06:12:31.059Z,101410.17
2022-10-17T06:17:34.449Z,101415.12
2022-10-17T06:22:37.453Z,101419.62
2022-10-17T06:27:40.614Z,101420.09
2022-10-17T06:32:44.277Z,101417.85
2022-10-17T06:37:47.383Z,101418.16
2022-10-17T06:42:50.596Z,101421.23
2022-10-17T06:47:53.801Z,101430.78
2022-10-17T06:52:57.007Z,101442.43
2022-10-17T06:58:00.431Z,101451.80
2022-10-17T07:03:03.500Z,101455.11
2022-10-17T07:08:07.352Z,101464.68
2022-10-17T07:13:10.454Z,101473.14
2022-10-17T07:18:14.585Z,101468.02
2022-10-17T07:23:17.687Z,101472.47
2022-10-17T07:28:20.691Z,101472.27
2022-10-17T07:33:24.208Z,101470.04
2022-10-17T07:38:28.468Z,101478.77
2022-10-17T07:43:31.511Z,101468.98
2022-10-17T07:48:34.956Z,101468.63
2022-10-17T07:53:41.771Z,101468.34
2022-10-17T07:58:48.916Z,101478.60
2022-10-17T08:03:52.773Z,101483.77
2022-10-17T08:08:55.981Z,101488.48
2022-10-17T08:13:59.497Z,101489.39
2022-10-17T08:19:03.874Z,101494.95
2022-10-17T08:24:07.146Z,101484.46
2022-10-17T08:29:15.279Z,101479.43
2022-10-17T08:34:18.679Z,101476.44
2022-10-17T08:39:21.787Z,101475.10
2022-10-17T08:44:31.059Z,101486.77
2022-10-17T08:49:56.468Z,101490.61
2022-10-17T08:55:00.091Z,101477.39
2022-10-17T09:00:03.186Z,101473.69
2022-10-17T09:05:26.747Z,101479.20
2022-10-17T09:10:42.270Z,101488.99
2022-10-17T09:16:05.139Z,101490.19
2022-10-17T09:21:33.743Z,101493.09
2022-10-17T09:26:39.735Z,101482.80
2022-10-17T09:31:49.493Z,101475.45
2022-10-17T09:36:53.502Z,101471.61
2022-10-17T09:41:59.317Z,101473.88
2022-10-17T09:47:06.984Z,101468.51
2022-10-17T09:52:37.020Z,101465.27
2022-10-17T09:57:52.209Z,101463.60
2022-10-17T10:03:16.615Z,101457.14
2022-10-17T10:08:20.231Z,101445.58
2022-10-17T10:13:27.596Z,101436.90
2022-10-17T10:18:36.482Z,101425.21
2022-10-17T10:23:45.019Z,101412.65
2022-10-17T10:29:32.462Z,101399.73
2022-10-17T10:34:37.817Z,101397.98
2022-10-17T10:39:48.498Z,101403.13
2022-10-17T10:44:52.832Z,101404.48
2022-10-17T10:50:18.056Z,101397.86
2022-10-17T10:55:30.073Z,101399.51
2022-10-17T11:00:37.441Z,101394.80
2022-10-17T11:05:46.826Z,101390.80
2022-10-17T11:11:04.065Z,101392.13
2022-10-17T11:16:40.481Z,101391.91
2022-10-17T11:21:58.821Z,101387.21
2022-10-17T11:27:05.589Z,101377.08
2022-10-17T11:32:24.912Z,101366.34
2022-10-17T11:37:36.087Z,101371.19
2022-10-17T11:42:58.347Z,101361.78
2022-10-17T11:48:06.774Z,101352.15
2022-10-17T11:53:28.924Z,101340.36
2022-10-17T11:58:41.661Z,101333.62
2022-10-17T12:04:44.834Z,101333.20
2022-10-17T12:10:23.508Z,101338.14
2022-10-17T12:15:26.624Z,101333.59
2022-10-17T12:20:32.801Z,101326.63
2022-10-17T12:30:56.005Z,101312.17
2022-10-17T12:36:34.438Z,101307.63
2022-10-17T12:41:39.185Z,101307.55
2022-10-17T12:46:46.285Z,101304.64
2022-10-17T12:52:27.681Z,101305.34
2022-10-17T12:57:49.120Z,101304.15
2022-10-17T13:02:55.342Z,101302.86
2022-10-17T13:08:01.167Z,101304.90
2022-10-17T13:13:13.179Z,101301.27
2022-10-17T13:18:23.651Z,101301.38
2022-10-17T13:23:35.471Z,101302.61
2022-10-17T13:28:39.665Z,101297.12
2022-10-17T13:33:43.219Z,101293.20
2022-10-17T13:38:47.242Z,101296.05
2022-10-17T13:43:51.849Z,101281.34
2022-10-17T13:48:55.093Z,101263.11
2022-10-17T13:53:58.917Z,101244.14
2022-10-17T13:59:18.124Z,101244.70
2022-10-17T14:04:21.610Z,101248.95
2022-10-17T14:09:29.122Z,101238.61
2022-10-17T14:14:46.402Z,101222.04
2022-10-17T14:20:16.094Z,101220.64
2022-10-17T14:25:49.504Z,101213.66
2022-10-17T14:30:57.558Z,101216.13
2022-10-17T14:36:02.811Z,101224.41
2022-10-17T14:46:38.072Z,101224.31
2022-10-17T14:51:56.521Z,101221.85
2022-10-17T14:57:22.991Z,101225.11
2022-10-17T15:02:28.854Z,101218.42
2022-10-17T15:07:33.608Z,101214.49
2022-10-17T15:12:37.020Z,101218.41
2022-10-17T15:17:40.456Z,101220.16
2022-10-17T15:22:43.710Z,101212.35
2022-10-17T15:27:46.963Z,101209.89
2022-10-17T15:32:50.983Z,101208.59
2022-10-17T15:37:55.023Z,101213.10
2022-10-17T15:42:58.647Z,101209.58
2022-10-17T15:48:06.991Z,101216.61
2022-10-17T15:53:14.051Z,101214.23
2022-10-17T15:58:19.750Z,101209.23
2022-10-17T16:03:23.550Z,101211.40
2022-10-17T16:08:26.851Z,101205.71
2022-10-17T16:13:30.777Z,101205.09
2022-10-17T16:18:35.520Z,101199.15
2022-10-17T16:23:38.851Z,101199.27
2022-10-17T16:28:46.231Z,101206.77
2022-10-17T16:33:53.455Z,101201.38
2022-10-17T16:38:57.157Z,101196.17
2022-10-17T16:44:03.691Z,101198.02
2022-10-17T16:49:08.398Z,101194.88
2022-10-17T16:54:11.902Z,101189.48
2022-10-17T16:59:15.211Z,101181.33
2022-10-17T17:04:19.350Z,101178.06
2022-10-17T17:09:22.859Z,101177.21
2022-10-17T17:14:26.781Z,101177.37
2022-10-17T17:19:30.917Z,101170.58
2022-10-17T17:24:34.787Z,101165.44
2022-10-17T17:29:38.761Z,101158.58
2022-10-17T17:34:42.173Z,101157.96
2022-10-17T17:39:46.410Z,101158.59
2022-10-17T17:44:50.161Z,101155.14
2022-10-17T17:49:53.745Z,101155.77
2022-10-17T17:54:56.950Z,101152.58
2022-10-17T18:00:00.061Z,101151.76
2022-10-17T18:05:04.289Z,101147.52
2022-10-17T18:10:09.520Z,101132.63
2022-10-17T18:15:14.290Z,101122.66
2022-10-17T18:20:17.806Z,101123.70
2022-10-17T18:25:21.024Z,101125.66
2022-10-17T18:30:27.134Z,101126.96
2022-10-17T18:35:34.983Z,101125.05
2022-10-17T18:40:41.474Z,101122.26
2022-10-17T18:45:44.909Z,101120.03
2022-10-17T18:50:48.333Z,101114.38
2022-10-17T18:55:52.045Z,101114.92
2022-10-17T19:00:55.659Z,101118.80
2022-10-17T19:06:08.063Z,101111.56
2022-10-17T19:11:15.796Z,101104.80
2022-10-17T19:16:25.290Z,101094.02
2022-10-17T19:21:28.457Z,101089.95
2022-10-17T19:26:35.441Z,101081.64
2022-10-17T19:31:40.131Z,101079.02
2022-10-17T19:36:44.350Z,101079.95
2022-10-17T19:41:49.479Z,101081.14
2022-10-17T19:46:53.404Z,101082.95
2022-10-17T19:51:56.847Z,101079.73
2022-10-17T19:57:01.310Z,101074.63
2022-10-17T20:02:05.857Z,101070.83
2022-10-17T20:07:10.126Z,101067.77
2022-10-17T20:12:13.336Z,101062.77
2022-10-17T20:17:16.649Z,101058.39
2022-10-17T20:22:21.517Z,101064.51
2022-10-17T20:27:27.698Z,101053.80
2022-10-17T20:32:39.493Z,101048.17
2022-10-17T20:37:43.856Z,101048.40
2022-10-17T20:42:47.227Z,101052.79
2022-10-17T20:47:54.047Z,101046.60
2022-10-17T20:53:17.728Z,101046.94
2022-10-17T20:58:20.915Z,101044.54
2022-10-17T21:03:24.945Z,101044.48
2022-10-17T21:08:28.151Z,101043.36
2022-10-17T21:13:31.257Z,101047.00
2022-10-17T21:18:34.565Z,101044.73
2022-10-17T21:23:38.695Z,101043.69
2022-10-17T21:28:43.753Z,101046.00
2022-10-17T21:33:49.492Z,101039.95
2022-10-17T21:38:54.905Z,101041.11
2022-10-17T21:44:04.533Z,101044.48
2022-10-17T21:49:07.987Z,101042.09
2022-10-17T21:54:11.874Z,101044.48
2022-10-17T21:59:14.974Z,101041.26
2022-10-17T22:04:19.617Z,101029.11
2022-10-17T22:09:25.219Z,101029.83
2022-10-17T22:14:28.493Z,101035.48
2022-10-17T22:19:31.906Z,101036.61
2022-10-17T22:24:35.017Z,101030.05
2022-10-17T22:29:39.858Z,101031.96
2022-10-17T22:34:42.963Z,101032.55
2022-10-17T22:39:46.272Z,101028.36
2022-10-17T22:44:50.096Z,101025.87
2022-10-17T22:49:53.098Z,101023.61
2022-10-17T22:54:56.055Z,101022.79
2022-10-17T22:59:59.413Z,101024.92
2022-10-17T23:05:02.630Z,101022.30
2022-10-17T23:10:07.092Z,101019.10
2022-10-17T23:15:10.881Z,101016.03
2022-10-17T23:20:14.088Z,101017.69
2022-10-17T23:25:17.500Z,101017.76
2022-10-17T23:30:20.918Z,101017.69
2022-10-17T23:35:24.021Z,101021.12
2022-10-17T23:40:27.534Z,101019.86
2022-10-17T23:45:35.964Z,101012.45
2022-10-17T23:50:40.095Z,101008.91
2022-10-17T23:55:43.302Z,101012.33
